sensor_id;sensor_type;location;lat;lon;timestamp;pressure;altitude;pressure_sealevel;temperature;humidity
75594;BME280;64176;49.156;7.810;2023-01-25T00:01:15;100924.69;;;1.45;88.12
75594;BME280;64176;49.156;7.810;2023-01-25T00:03:59;100922.47;;;1.50;88.14
75594;BME280;64176;49.156;7.810;2023-01-25T00:06:43;100916.63;;;1.39;88.30
75594;BME280;64176;49.156;7.810;2023-01-25T00:09:27;100913.94;;;1.49;87.88
75594;BME280;64176;49.156;7.810;2023-01-25T00:12:11;100916.25;;;1.46;88.02
75594;BME280;64176;49.156;7.810;2023-01-25T00:14:55;100909.78;;;1.63;87.67
75594;BME280;64176;49.156;7.810;2023-01-25T00:17:39;100906.34;;;1.62;87.08
75594;BME280;64176;49.156;7.810;2023-01-25T00:20:26;100892.22;;;1.54;87.46
75594;BME280;64176;49.156;7.810;2023-01-25T00:23:12;100893.03;;;1.41;88.10
75594;BME280;64176;49.156;7.810;2023-01-25T00:25:57;100887.06;;;1.41;87.14
75594;BME280;64176;49.156;7.810;2023-01-25T00:28:41;100892.59;;;1.60;86.85
75594;BME280;64176;49.156;7.810;2023-01-25T00:40:15;100889.34;;;1.50;87.39
75594;BME280;64176;49.156;7.810;2023-01-25T00:42:59;100890.84;;;1.59;86.99
75594;BME280;64176;49.156;7.810;2023-01-25T00:45:48;100879.38;;;1.53;86.57
75594;BME280;64176;49.156;7.810;2023-01-25T00:48:32;100881.81;;;1.51;86.48
75594;BME280;64176;49.156;7.810;2023-01-25T00:51:17;100877.69;;;1.53;86.81
75594;BME280;64176;49.156;7.810;2023-01-25T00:54:01;100865.47;;;1.61;86.27
75594;BME280;64176;49.156;7.810;2023-01-25T00:56:46;100871.81;;;1.54;86.51
75594;BME280;64176;49.156;7.810;2023-01-25T00:59:32;100870.16;;;1.55;86.33
75594;BME280;64176;49.156;7.810;2023-01-25T01:02:18;100862.81;;;1.59;86.29
75594;BME280;64176;49.156;7.810;2023-01-25T01:05:03;100863.97;;;1.51;86.91
75594;BME280;64176;49.156;7.810;2023-01-25T01:07:48;100863.31;;;1.54;86.74
75594;BME280;64176;49.156;7.810;2023-01-25T01:10:35;100850.75;;;1.57;86.47
75594;BME280;64176;49.156;7.810;2023-01-25T01:13:20;100855.56;;;1.52;86.43
75594;BME280;64176;49.156;7.810;2023-01-25T01:16:07;100859.94;;;1.41;87.29
75594;BME280;64176;49.156;7.810;2023-01-25T01:18:54;100847.19;;;1.41;87.75
75594;BME280;64176;49.156;7.810;2023-01-25T01:21:38;100855.00;;;1.31;88.04
75594;BME280;64176;49.156;7.810;2023-01-25T01:24:22;100842.97;;;1.42;87.56
75594;BME280;64176;49.156;7.810;2023-01-25T01:27:06;100849.13;;;1.45;87.23
75594;BME280;64176;49.156;7.810;2023-01-25T01:29:50;100839.28;;;1.50;86.86
75594;BME280;64176;49.156;7.810;2023-01-25T01:32:36;100843.69;;;1.53;86.83
75594;BME280;64176;49.156;7.810;2023-01-25T01:35:20;100843.19;;;1.58;86.67
75594;BME280;64176;49.156;7.810;2023-01-25T01:38:04;100845.94;;;1.48;87.49
75594;BME280;64176;49.156;7.810;2023-01-25T01:40:49;100849.03;;;1.44;87.35
75594;BME280;64176;49.156;7.810;2023-01-25T01:43:34;100845.00;;;1.34;88.16
75594;BME280;64176;49.156;7.810;2023-01-25T01:49:23;100829.81;;;1.36;87.12
75594;BME280;64176;49.156;7.810;2023-01-25T01:52:16;100829.47;;;1.43;87.08
75594;BME280;64176;49.156;7.810;2023-01-25T01:55:12;100839.66;;;1.43;87.64
75594;BME280;64176;49.156;7.810;2023-01-25T01:57:59;100837.50;;;1.49;87.74
75594;BME280;64176;49.156;7.810;2023-01-25T02:00:46;100845.25;;;1.51;87.20
75594;BME280;64176;49.156;7.810;2023-01-25T02:03:30;100840.44;;;1.55;87.37
75594;BME280;64176;49.156;7.810;2023-01-25T02:06:20;100843.31;;;1.60;87.26
75594;BME280;64176;49.156;7.810;2023-01-25T02:09:10;100842.63;;;1.62;86.83
75594;BME280;64176;49.156;7.810;2023-01-25T02:11:56;100848.47;;;1.48;87.09
75594;BME280;64176;49.156;7.810;2023-01-25T02:14:48;100843.66;;;1.39;87.57
75594;BME280;64176;49.156;7.810;2023-01-25T02:17:37;100848.31;;;1.33;87.84
75594;BME280;64176;49.156;7.810;2023-01-25T02:20:28;100835.22;;;1.40;87.08
75594;BME280;64176;49.156;7.810;2023-01-25T02:26:10;100848.69;;;1.51;86.70
75594;BME280;64176;49.156;7.810;2023-01-25T02:29:01;100854.13;;;1.44;88.23
75594;BME280;64176;49.156;7.810;2023-01-25T02:31:46;100837.28;;;1.46;87.52
75594;BME280;64176;49.156;7.810;2023-01-25T02:34:32;100836.22;;;1.56;87.22
75594;BME280;64176;49.156;7.810;2023-01-25T02:37:17;100831.13;;;1.42;87.46
75594;BME280;64176;49.156;7.810;2023-01-25T02:40:01;100834.06;;;1.49;87.08
75594;BME280;64176;49.156;7.810;2023-01-25T02:42:46;100829.31;;;1.53;87.20
75594;BME280;64176;49.156;7.810;2023-01-25T02:45:34;100827.00;;;1.44;87.31
75594;BME280;64176;49.156;7.810;2023-01-25T02:48:19;100829.38;;;1.41;87.65
75594;BME280;64176;49.156;7.810;2023-01-25T02:51:08;100827.22;;;1.48;86.60
75594;BME280;64176;49.156;7.810;2023-01-25T02:53:52;100822.03;;;1.59;86.31
75594;BME280;64176;49.156;7.810;2023-01-25T02:56:38;100817.06;;;1.61;86.78
75594;BME280;64176;49.156;7.810;2023-01-25T02:59:26;100813.91;;;1.52;86.84
75594;BME280;64176;49.156;7.810;2023-01-25T03:02:15;100810.16;;;1.46;87.12
75594;BME280;64176;49.156;7.810;2023-01-25T03:05:00;100813.41;;;1.57;86.95
75594;BME280;64176;49.156;7.810;2023-01-25T03:07:45;100807.25;;;1.54;86.60
75594;BME280;64176;49.156;7.810;2023-01-25T03:10:30;100800.56;;;1.56;85.99
75594;BME280;64176;49.156;7.810;2023-01-25T03:13:16;100805.75;;;1.57;86.55
75594;BME280;64176;49.156;7.810;2023-01-25T03:16:05;100807.44;;;1.57;86.20
75594;BME280;64176;49.156;7.810;2023-01-25T03:18:54;100805.09;;;1.60;86.22
75594;BME280;64176;49.156;7.810;2023-01-25T03:21:40;100807.25;;;1.54;87.01
75594;BME280;64176;49.156;7.810;2023-01-25T03:24:24;100792.94;;;1.42;86.88
75594;BME280;64176;49.156;7.810;2023-01-25T03:27:11;100800.78;;;1.59;86.87
75594;BME280;64176;49.156;7.810;2023-01-25T03:30:04;100757.44;;;1.32;86.77
75594;BME280;64176;49.156;7.810;2023-01-25T03:32:50;100801.78;;;1.61;86.64
75594;BME280;64176;49.156;7.810;2023-01-25T03:35:37;100804.63;;;1.65;86.47
75594;BME280;64176;49.156;7.810;2023-01-25T03:38:23;100803.63;;;1.63;86.53
75594;BME280;64176;49.156;7.810;2023-01-25T03:41:08;100807.53;;;1.58;86.77
75594;BME280;64176;49.156;7.810;2023-01-25T03:43:54;100801.94;;;1.51;86.83
75594;BME280;64176;49.156;7.810;2023-01-25T03:46:40;100799.78;;;1.57;86.53
75594;BME280;64176;49.156;7.810;2023-01-25T03:49:25;100800.00;;;1.60;86.52
75594;BME280;64176;49.156;7.810;2023-01-25T03:52:11;100795.41;;;1.54;86.87
75594;BME280;64176;49.156;7.810;2023-01-25T03:54:58;100800.78;;;1.59;86.61
75594;BME280;64176;49.156;7.810;2023-01-25T03:57:42;100803.50;;;1.49;86.82
75594;BME280;64176;49.156;7.810;2023-01-25T04:00:30;100802.06;;;1.52;87.01
75594;BME280;64176;49.156;7.810;2023-01-25T04:03:18;100790.97;;;1.52;86.85
75594;BME280;64176;49.156;7.810;2023-01-25T04:06:05;100792.91;;;1.56;86.82
75594;BME280;64176;49.156;7.810;2023-01-25T04:08:51;100791.97;;;1.54;86.67
75594;BME280;64176;49.156;7.810;2023-01-25T04:11:36;100795.19;;;1.51;87.36
75594;BME280;64176;49.156;7.810;2023-01-25T04:14:24;100786.38;;;1.59;87.08
75594;BME280;64176;49.156;7.810;2023-01-25T04:17:19;100791.25;;;1.56;87.08
75594;BME280;64176;49.156;7.810;2023-01-25T04:20:18;100789.50;;;1.55;86.98
75594;BME280;64176;49.156;7.810;2023-01-25T04:23:03;100798.22;;;1.59;86.87
75594;BME280;64176;49.156;7.810;2023-01-25T04:25:57;100789.91;;;1.61;86.78
75594;BME280;64176;49.156;7.810;2023-01-25T04:28:46;100782.94;;;1.59;86.85
75594;BME280;64176;49.156;7.810;2023-01-25T04:31:30;100769.81;;;1.53;86.55
75594;BME280;64176;49.156;7.810;2023-01-25T04:34:18;100775.97;;;1.56;86.82
75594;BME280;64176;49.156;7.810;2023-01-25T04:37:03;100783.25;;;1.63;86.74
75594;BME280;64176;49.156;7.810;2023-01-25T04:39:51;100772.34;;;1.66;86.81
75594;BME280;64176;49.156;7.810;2023-01-25T04:42:36;100778.81;;;1.48;87.16
75594;BME280;64176;49.156;7.810;2023-01-25T04:45:23;100774.69;;;1.50;87.16
75594;BME280;64176;49.156;7.810;2023-01-25T04:48:09;100763.72;;;1.37;87.44
75594;BME280;64176;49.156;7.810;2023-01-25T04:50:56;100777.56;;;1.54;87.10
75594;BME280;64176;49.156;7.810;2023-01-25T04:53:45;100779.72;;;1.61;87.15
75594;BME280;64176;49.156;7.810;2023-01-25T04:56:30;100773.34;;;1.55;87.74
75594;BME280;64176;49.156;7.810;2023-01-25T04:59:16;100771.47;;;1.52;87.28
75594;BME280;64176;49.156;7.810;2023-01-25T05:02:05;100774.53;;;1.60;86.99
75594;BME280;64176;49.156;7.810;2023-01-25T05:04:48;100778.06;;;1.62;86.74
75594;BME280;64176;49.156;7.810;2023-01-25T05:07:33;100773.63;;;1.59;87.31
75594;BME280;64176;49.156;7.810;2023-01-25T05:10:18;100773.16;;;1.65;87.00
75594;BME280;64176;49.156;7.810;2023-01-25T05:13:22;100769.22;;;1.57;87.52
75594;BME280;64176;49.156;7.810;2023-01-25T05:16:15;100778.81;;;1.48;88.00
75594;BME280;64176;49.156;7.810;2023-01-25T05:18:59;100769.13;;;1.42;88.17
75594;BME280;64176;49.156;7.810;2023-01-25T05:22:12;100776.06;;;1.44;87.57
75594;BME280;64176;49.156;7.810;2023-01-25T05:25:05;100773.25;;;1.53;87.86
75594;BME280;64176;49.156;7.810;2023-01-25T05:28:10;100764.84;;;1.54;87.96
75594;BME280;64176;49.156;7.810;2023-01-25T05:31:17;100770.59;;;1.52;88.11
75594;BME280;64176;49.156;7.810;2023-01-25T05:34:01;100769.03;;;1.54;88.07
75594;BME280;64176;49.156;7.810;2023-01-25T05:36:48;100760.88;;;1.46;87.98
75594;BME280;64176;49.156;7.810;2023-01-25T05:39:32;100764.50;;;1.36;88.22
75594;BME280;64176;49.156;7.810;2023-01-25T05:42:17;100760.78;;;1.44;88.13
75594;BME280;64176;49.156;7.810;2023-01-25T05:45:01;100752.94;;;1.41;87.98
75594;BME280;64176;49.156;7.810;2023-01-25T05:47:51;100746.97;;;1.41;88.51
75594;BME280;64176;49.156;7.810;2023-01-25T05:50:35;100750.19;;;1.38;87.87
75594;BME280;64176;49.156;7.810;2023-01-25T05:53:27;100759.00;;;1.30;88.20
75594;BME280;64176;49.156;7.810;2023-01-25T05:56:11;100754.19;;;1.35;88.28
75594;BME280;64176;49.156;7.810;2023-01-25T05:58:59;100765.69;;;1.41;88.21
75594;BME280;64176;49.156;7.810;2023-01-25T06:01:43;100764.13;;;1.43;87.84
75594;BME280;64176;49.156;7.810;2023-01-25T06:04:28;100761.84;;;1.35;87.99
75594;BME280;64176;49.156;7.810;2023-01-25T06:07:13;100755.97;;;1.36;87.79
75594;BME280;64176;49.156;7.810;2023-01-25T06:10:00;100756.13;;;1.26;88.29
75594;BME280;64176;49.156;7.810;2023-01-25T06:12:44;100758.78;;;1.27;88.54
75594;BME280;64176;49.156;7.810;2023-01-25T06:15:28;100758.00;;;1.28;88.48
75594;BME280;64176;49.156;7.810;2023-01-25T06:18:21;100753.13;;;1.31;87.87
75594;BME280;64176;49.156;7.810;2023-01-25T06:21:36;100745.38;;;1.30;87.93
75594;BME280;64176;49.156;7.810;2023-01-25T06:24:20;100751.38;;;1.30;88.19
75594;BME280;64176;49.156;7.810;2023-01-25T06:27:04;100747.94;;;1.30;88.35
75594;BME280;64176;49.156;7.810;2023-01-25T06:29:48;100742.72;;;1.28;88.03
75594;BME280;64176;49.156;7.810;2023-01-25T06:32:32;100738.50;;;1.16;88.09
75594;BME280;64176;49.156;7.810;2023-01-25T06:35:16;100742.88;;;1.05;88.08
75594;BME280;64176;49.156;7.810;2023-01-25T06:38:01;100745.81;;;1.11;87.96
75594;BME280;64176;49.156;7.810;2023-01-25T06:40:46;100740.88;;;1.01;87.82
75594;BME280;64176;49.156;7.810;2023-01-25T06:43:30;100738.06;;;0.96;87.95
75594;BME280;64176;49.156;7.810;2023-01-25T06:46:18;100741.66;;;1.00;88.15
75594;BME280;64176;49.156;7.810;2023-01-25T06:49:02;100739.28;;;0.90;88.54
75594;BME280;64176;49.156;7.810;2023-01-25T06:51:46;100735.69;;;0.86;88.60
75594;BME280;64176;49.156;7.810;2023-01-25T06:54:30;100747.47;;;0.97;88.78
75594;BME280;64176;49.156;7.810;2023-01-25T06:57:14;100751.44;;;0.94;88.68
75594;BME280;64176;49.156;7.810;2023-01-25T06:59:58;100745.63;;;0.83;88.67
75594;BME280;64176;49.156;7.810;2023-01-25T07:02:42;100746.31;;;0.81;88.62
75594;BME280;64176;49.156;7.810;2023-01-25T07:05:26;100748.06;;;0.82;88.69
75594;BME280;64176;49.156;7.810;2023-01-25T07:08:12;100749.06;;;0.84;88.68
75594;BME280;64176;49.156;7.810;2023-01-25T07:10:59;100748.63;;;0.78;88.75
75594;BME280;64176;49.156;7.810;2023-01-25T07:13:45;100752.28;;;0.81;89.01
75594;BME280;64176;49.156;7.810;2023-01-25T07:16:30;100744.97;;;0.86;88.36
75594;BME280;64176;49.156;7.810;2023-01-25T07:19:21;100747.19;;;0.81;88.72
75594;BME280;64176;49.156;7.810;2023-01-25T07:22:08;100751.28;;;0.79;88.88
75594;BME280;64176;49.156;7.810;2023-01-25T07:24:52;100750.06;;;0.86;88.70
75594;BME280;64176;49.156;7.810;2023-01-25T07:27:39;100750.94;;;0.86;88.70
75594;BME280;64176;49.156;7.810;2023-01-25T07:30:23;100742.94;;;0.93;88.05
75594;BME280;64176;49.156;7.810;2023-01-25T07:33:08;100743.91;;;0.95;88.18
75594;BME280;64176;49.156;7.810;2023-01-25T07:35:52;100742.44;;;0.86;87.45
75594;BME280;64176;49.156;7.810;2023-01-25T07:38:36;100739.28;;;0.90;87.92
75594;BME280;64176;49.156;7.810;2023-01-25T07:41:21;100736.28;;;0.70;87.69
75594;BME280;64176;49.156;7.810;2023-01-25T07:44:06;100744.09;;;0.85;87.25
75594;BME280;64176;49.156;7.810;2023-01-25T07:46:54;100749.56;;;0.91;86.91
75594;BME280;64176;49.156;7.810;2023-01-25T07:49:41;100747.84;;;0.79;87.29
75594;BME280;64176;49.156;7.810;2023-01-25T07:52:25;100740.19;;;0.65;87.09
75594;BME280;64176;49.156;7.810;2023-01-25T07:55:09;100747.78;;;0.77;87.48
75594;BME280;64176;49.156;7.810;2023-01-25T07:57:53;100730.03;;;0.79;87.07
75594;BME280;64176;49.156;7.810;2023-01-25T08:00:38;100752.50;;;0.84;86.95
75594;BME280;64176;49.156;7.810;2023-01-25T08:03:23;100746.97;;;0.78;87.35
75594;BME280;64176;49.156;7.810;2023-01-25T08:06:07;100736.25;;;0.82;87.17
75594;BME280;64176;49.156;7.810;2023-01-25T08:08:52;100742.16;;;0.94;86.93
75594;BME280;64176;49.156;7.810;2023-01-25T08:11:40;100746.25;;;0.92;87.19
75594;BME280;64176;49.156;7.810;2023-01-25T08:14:24;100742.25;;;0.96;87.38
75594;BME280;64176;49.156;7.810;2023-01-25T08:17:11;100745.16;;;0.89;87.18
75594;BME280;64176;49.156;7.810;2023-01-25T08:19:58;100751.94;;;0.88;86.88
75594;BME280;64176;49.156;7.810;2023-01-25T08:22:42;100748.78;;;0.92;86.28
75594;BME280;64176;49.156;7.810;2023-01-25T08:25:29;100746.56;;;0.97;86.63
75594;BME280;64176;49.156;7.810;2023-01-25T08:28:15;100747.97;;;1.05;86.64
75594;BME280;64176;49.156;7.810;2023-01-25T08:31:14;100746.41;;;1.07;86.20
75594;BME280;64176;49.156;7.810;2023-01-25T08:34:01;100737.28;;;0.97;86.38
75594;BME280;64176;49.156;7.810;2023-01-25T08:36:45;100741.66;;;1.00;86.55
75594;BME280;64176;49.156;7.810;2023-01-25T08:39:35;100731.94;;;0.81;86.92
75594;BME280;64176;49.156;7.810;2023-01-25T08:42:19;100732.97;;;0.71;87.25
75594;BME280;64176;49.156;7.810;2023-01-25T08:45:04;100728.19;;;0.76;87.33
75594;BME280;64176;49.156;7.810;2023-01-25T08:47:48;100732.44;;;0.89;86.79
75594;BME280;64176;49.156;7.810;2023-01-25T08:50:32;100734.03;;;1.00;86.50
75594;BME280;64176;49.156;7.810;2023-01-25T08:53:17;100739.50;;;0.93;86.13
75594;BME280;64176;49.156;7.810;2023-01-25T08:56:03;100735.84;;;0.76;87.24
75594;BME280;64176;49.156;7.810;2023-01-25T08:58:48;100737.00;;;0.81;87.09
75594;BME280;64176;49.156;7.810;2023-01-25T09:01:35;100729.91;;;0.64;87.19
75594;BME280;64176;49.156;7.810;2023-01-25T09:04:21;100728.97;;;0.75;87.20
75594;BME280;64176;49.156;7.810;2023-01-25T09:07:11;100725.56;;;0.75;87.42
75594;BME280;64176;49.156;7.810;2023-01-25T09:09:55;100724.00;;;0.77;87.55
75594;BME280;64176;49.156;7.810;2023-01-25T09:12:41;100704.00;;;0.69;87.65
75594;BME280;64176;49.156;7.810;2023-01-25T09:15:26;100703.00;;;0.67;87.62
75594;BME280;64176;49.156;7.810;2023-01-25T09:18:10;100716.31;;;0.88;87.43
75594;BME280;64176;49.156;7.810;2023-01-25T09:20:54;100706.75;;;0.97;87.15
75594;BME280;64176;49.156;7.810;2023-01-25T09:23:41;100702.50;;;0.85;87.43
75594;BME280;64176;49.156;7.810;2023-01-25T09:26:30;100701.09;;;0.77;87.92
75594;BME280;64176;49.156;7.810;2023-01-25T09:29:15;100694.03;;;0.48;88.92
75594;BME280;64176;49.156;7.810;2023-01-25T09:32:01;100704.38;;;0.62;88.65
75594;BME280;64176;49.156;7.810;2023-01-25T09:34:50;100712.28;;;0.67;88.58
75594;BME280;64176;49.156;7.810;2023-01-25T09:37:37;100713.34;;;0.82;87.91
75594;BME280;64176;49.156;7.810;2023-01-25T09:40:32;100725.03;;;0.42;89.33
75594;BME280;64176;49.156;7.810;2023-01-25T09:43:34;100710.13;;;0.60;89.31
75594;BME280;64176;49.156;7.810;2023-01-25T09:46:43;100715.16;;;0.71;88.47
75594;BME280;64176;49.156;7.810;2023-01-25T09:49:57;100716.50;;;0.66;88.57
75594;BME280;64176;49.156;7.810;2023-01-25T09:56:02;100696.34;;;0.69;88.71
75594;BME280;64176;49.156;7.810;2023-01-25T09:58:49;100706.91;;;0.87;88.07
75594;BME280;64176;49.156;7.810;2023-01-25T10:04:34;100689.47;;;0.93;87.53
75594;BME280;64176;49.156;7.810;2023-01-25T10:07:26;100683.47;;;0.80;87.81
75594;BME280;64176;49.156;7.810;2023-01-25T10:10:43;100702.75;;;0.76;87.54
75594;BME280;64176;49.156;7.810;2023-01-25T10:13:28;100697.47;;;0.73;88.44
75594;BME280;64176;49.156;7.810;2023-01-25T10:16:21;100692.59;;;0.89;88.20
75594;BME280;64176;49.156;7.810;2023-01-25T10:19:24;100695.19;;;0.78;88.15
75594;BME280;64176;49.156;7.810;2023-01-25T10:22:20;100682.41;;;0.76;87.99
75594;BME280;64176;49.156;7.810;2023-01-25T10:31:28;100688.66;;;0.56;88.52
75594;BME280;64176;49.156;7.810;2023-01-25T10:34:19;100683.53;;;0.68;88.46
75594;BME280;64176;49.156;7.810;2023-01-25T10:37:12;100682.03;;;0.58;88.77
75594;BME280;64176;49.156;7.810;2023-01-25T10:40:05;100663.06;;;0.53;88.44
75594;BME280;64176;49.156;7.810;2023-01-25T10:43:02;100675.66;;;0.52;88.76
75594;BME280;64176;49.156;7.810;2023-01-25T10:45:50;100682.09;;;0.47;89.16
75594;BME280;64176;49.156;7.810;2023-01-25T10:48:35;100673.06;;;0.39;89.34
75594;BME280;64176;49.156;7.810;2023-01-25T10:51:31;100665.88;;;0.58;88.93
75594;BME280;64176;49.156;7.810;2023-01-25T10:54:16;100656.78;;;0.86;87.61
75594;BME280;64176;49.156;7.810;2023-01-25T10:57:00;100648.44;;;0.89;87.43
75594;BME280;64176;49.156;7.810;2023-01-25T10:59:45;100623.47;;;0.70;87.75
75594;BME280;64176;49.156;7.810;2023-01-25T11:02:44;100647.38;;;0.85;87.20
75594;BME280;64176;49.156;7.810;2023-01-25T11:05:36;100641.56;;;0.99;87.31
75594;BME280;64176;49.156;7.810;2023-01-25T11:11:23;100623.78;;;0.75;87.84
75594;BME280;64176;49.156;7.810;2023-01-25T11:14:16;100598.84;;;0.82;87.71
75594;BME280;64176;49.156;7.810;2023-01-25T11:17:04;100614.66;;;0.78;87.94
75594;BME280;64176;49.156;7.810;2023-01-25T11:20:03;100612.22;;;0.80;88.54
75594;BME280;64176;49.156;7.810;2023-01-25T11:22:56;100602.09;;;1.06;87.96
75594;BME280;64176;49.156;7.810;2023-01-25T11:25:43;100600.22;;;1.03;87.90
75594;BME280;64176;49.156;7.810;2023-01-25T11:28:32;100589.84;;;1.00;87.68
75594;BME280;64176;49.156;7.810;2023-01-25T11:31:20;100590.72;;;0.88;88.05
75594;BME280;64176;49.156;7.810;2023-01-25T11:34:08;100578.41;;;0.94;87.93
75594;BME280;64176;49.156;7.810;2023-01-25T11:40:06;100573.69;;;1.00;88.00
75594;BME280;64176;49.156;7.810;2023-01-25T11:43:09;100556.47;;;0.96;87.50
75594;BME280;64176;49.156;7.810;2023-01-25T11:52:10;100542.19;;;0.98;87.83
75594;BME280;64176;49.156;7.810;2023-01-25T11:57:54;100548.44;;;1.03;87.92
75594;BME280;64176;49.156;7.810;2023-01-25T12:10:24;100522.22;;;0.64;88.62
75594;BME280;64176;49.156;7.810;2023-01-25T12:16:26;100506.34;;;0.68;89.34
75594;BME280;64176;49.156;7.810;2023-01-25T12:28:13;100489.41;;;1.08;88.20
75594;BME280;64176;49.156;7.810;2023-01-25T12:31:20;100488.53;;;0.82;88.84
75594;BME280;64176;49.156;7.810;2023-01-25T12:37:21;100479.25;;;0.95;88.55
75594;BME280;64176;49.156;7.810;2023-01-25T12:40:17;100460.97;;;0.75;88.53
75594;BME280;64176;49.156;7.810;2023-01-25T12:43:10;100464.19;;;0.72;87.73
75594;BME280;64176;49.156;7.810;2023-01-25T12:45:58;100438.47;;;0.54;88.59
75594;BME280;64176;49.156;7.810;2023-01-25T12:48:49;100463.88;;;0.81;88.31
75594;BME280;64176;49.156;7.810;2023-01-25T12:51:39;100446.47;;;0.87;88.32
75594;BME280;64176;49.156;7.810;2023-01-25T12:54:33;100456.75;;;0.88;87.85
75594;BME280;64176;49.156;7.810;2023-01-25T12:57:55;100451.94;;;0.80;88.57
75594;BME280;64176;49.156;7.810;2023-01-25T13:04:00;100439.97;;;0.92;88.08
75594;BME280;64176;49.156;7.810;2023-01-25T13:12:23;100423.34;;;0.97;87.87
75594;BME280;64176;49.156;7.810;2023-01-25T13:15:34;100430.09;;;0.96;87.86
75594;BME280;64176;49.156;7.810;2023-01-25T13:24:25;100418.47;;;0.87;87.97
75594;BME280;64176;49.156;7.810;2023-01-25T13:27:24;100410.66;;;0.84;88.33
75594;BME280;64176;49.156;7.810;2023-01-25T13:33:03;100396.94;;;0.82;87.66
75594;BME280;64176;49.156;7.810;2023-01-25T13:35:53;100395.06;;;0.92;87.13
75594;BME280;64176;49.156;7.810;2023-01-25T13:38:37;100398.22;;;0.88;87.67
75594;BME280;64176;49.156;7.810;2023-01-25T13:41:21;100400.06;;;0.91;87.81
75594;BME280;64176;49.156;7.810;2023-01-25T13:44:22;100377.38;;;0.67;87.75
75594;BME280;64176;49.156;7.810;2023-01-25T13:47:13;100396.34;;;0.99;87.67
75594;BME280;64176;49.156;7.810;2023-01-25T13:55:58;100381.56;;;0.93;87.69
75594;BME280;64176;49.156;7.810;2023-01-25T13:58:45;100374.34;;;0.86;87.76
75594;BME280;64176;49.156;7.810;2023-01-25T14:01:33;100369.38;;;0.75;88.31
75594;BME280;64176;49.156;7.810;2023-01-25T14:04:18;100374.50;;;0.89;87.90
75594;BME280;64176;49.156;7.810;2023-01-25T14:07:02;100362.31;;;0.84;87.68
75594;BME280;64176;49.156;7.810;2023-01-25T14:09:52;100365.94;;;0.74;88.13
75594;BME280;64176;49.156;7.810;2023-01-25T14:12:40;100359.78;;;0.70;88.46
75594;BME280;64176;49.156;7.810;2023-01-25T14:15:28;100354.44;;;0.66;87.98
75594;BME280;64176;49.156;7.810;2023-01-25T14:18:17;100357.44;;;0.73;88.43
75594;BME280;64176;49.156;7.810;2023-01-25T14:24:10;100345.31;;;0.69;88.34
75594;BME280;64176;49.156;7.810;2023-01-25T14:26:54;100343.75;;;0.58;89.00
75594;BME280;64176;49.156;7.810;2023-01-25T14:29:46;100339.00;;;0.50;89.20
75594;BME280;64176;49.156;7.810;2023-01-25T14:32:31;100330.84;;;0.55;89.30
75594;BME280;64176;49.156;7.810;2023-01-25T14:35:37;100339.19;;;0.53;89.09
75594;BME280;64176;49.156;7.810;2023-01-25T14:38:40;100339.75;;;0.62;88.94
75594;BME280;64176;49.156;7.810;2023-01-25T14:41:31;100335.81;;;0.67;88.47
75594;BME280;64176;49.156;7.810;2023-01-25T14:44:16;100333.75;;;0.75;88.22
75594;BME280;64176;49.156;7.810;2023-01-25T14:47:19;100333.09;;;0.64;88.65
75594;BME280;64176;49.156;7.810;2023-01-25T14:53:20;100319.22;;;0.59;88.52
75594;BME280;64176;49.156;7.810;2023-01-25T14:56:04;100320.41;;;0.51;88.13
75594;BME280;64176;49.156;7.810;2023-01-25T14:58:57;100327.53;;;0.56;88.44
75594;BME280;64176;49.156;7.810;2023-01-25T15:01:43;100324.28;;;0.59;88.57
75594;BME280;64176;49.156;7.810;2023-01-25T15:04:28;100327.34;;;0.53;88.35
75594;BME280;64176;49.156;7.810;2023-01-25T15:08:13;100314.44;;;0.50;88.20
75594;BME280;64176;49.156;7.810;2023-01-25T15:10:55;100330.09;;;0.43;88.15
75594;BME280;64176;49.156;7.810;2023-01-25T15:13:39;100322.38;;;0.42;88.15
75594;BME280;64176;49.156;7.810;2023-01-25T15:16:35;100312.13;;;0.40;88.12
75594;BME280;64176;49.156;7.810;2023-01-25T15:19:27;100312.22;;;0.42;88.10
75594;BME280;64176;49.156;7.810;2023-01-25T15:22:12;100308.28;;;0.33;87.37
75594;BME280;64176;49.156;7.810;2023-01-25T15:24:56;100299.41;;;0.27;88.10
75594;BME280;64176;49.156;7.810;2023-01-25T15:27:40;100282.25;;;0.10;88.54
75594;BME280;64176;49.156;7.810;2023-01-25T15:30:24;100286.69;;;0.40;87.83
75594;BME280;64176;49.156;7.810;2023-01-25T15:36:02;100272.78;;;0.35;88.20
75594;BME280;64176;49.156;7.810;2023-01-25T15:38:46;100271.69;;;0.45;87.76
75594;BME280;64176;49.156;7.810;2023-01-25T15:41:30;100267.66;;;0.20;88.33
75594;BME280;64176;49.156;7.810;2023-01-25T15:44:14;100248.56;;;0.27;87.57
75594;BME280;64176;49.156;7.810;2023-01-25T15:47:02;100263.94;;;0.15;88.11
75594;BME280;64176;49.156;7.810;2023-01-25T15:49:46;100260.31;;;0.12;88.47
75594;BME280;64176;49.156;7.810;2023-01-25T15:52:32;100262.19;;;0.14;88.90
75594;BME280;64176;49.156;7.810;2023-01-25T15:55:16;100260.13;;;0.22;88.71
75594;BME280;64176;49.156;7.810;2023-01-25T15:58:00;100251.19;;;0.42;87.83
75594;BME280;64176;49.156;7.810;2023-01-25T16:00:44;100261.59;;;0.18;87.44
75594;BME280;64176;49.156;7.810;2023-01-25T16:03:29;100256.31;;;0.15;87.28
75594;BME280;64176;49.156;7.810;2023-01-25T16:09:04;100253.41;;;-0.30;89.46
75594;BME280;64176;49.156;7.810;2023-01-25T16:11:56;100256.94;;;-0.15;89.45
75594;BME280;64176;49.156;7.810;2023-01-25T16:14:41;100258.28;;;-0.07;89.06
75594;BME280;64176;49.156;7.810;2023-01-25T16:17:24;100252.91;;;0.15;88.73
75594;BME280;64176;49.156;7.810;2023-01-25T16:20:18;100250.78;;;-0.06;89.30
75594;BME280;64176;49.156;7.810;2023-01-25T16:23:03;100251.34;;;0.04;89.09
75594;BME280;64176;49.156;7.810;2023-01-25T16:25:47;100250.56;;;-0.22;89.71
75594;BME280;64176;49.156;7.810;2023-01-25T16:28:31;100243.16;;;-0.06;89.68
75594;BME280;64176;49.156;7.810;2023-01-25T16:31:15;100238.06;;;0.08;88.88
75594;BME280;64176;49.156;7.810;2023-01-25T16:34:00;100236.66;;;0.13;89.01